Time;durP1;ratioP1;P1;durP2;ratioP2;P2;SDS_P1;SDS_P2;PMS_P1;PMS_P2;Temp;Humidity;BMP_temperature;BMP_pressure;BME280_temperature;BME280_humidity;BME280_pressure;Samples;Min_cycle;Max_cycle;Signal;HPM_P1;HPM_P2
2022/06/13 00:01:55;;;;;;;22.70;7.10;;;16.10;99.90;;;;;;5051671;28;20420;-63
2022/06/13 00:04:21;;;;;;;21.83;6.25;;;16.10;99.90;;;;;;5051556;28;20033;-64
2022/06/13 00:06:47;;;;;;;21.85;6.93;;;16.00;99.90;;;;;;5054596;28;20039;-67
2022/06/13 00:09:13;;;;;;;22.88;6.97;;;16.00;99.90;;;;;;5055408;28;20087;-65
2022/06/13 00:11:38;;;;;;;24.23;7.53;;;16.00;99.90;;;;;;5055477;28;20021;-67
2022/06/13 00:14:04;;;;;;;22.20;6.85;;;16.00;99.90;;;;;;5053602;28;20107;-63
2022/06/13 00:16:30;;;;;;;22.35;7.47;;;15.90;99.90;;;;;;5055205;28;20045;-64
2022/06/13 00:18:56;;;;;;;18.75;5.38;;;15.90;99.90;;;;;;5055173;28;20032;-63
2022/06/13 00:21:28;;;;;;;23.13;6.18;;;15.80;99.90;;;;;;5055283;28;20059;-62
2022/06/13 00:23:54;;;;;;;24.17;7.43;;;15.80;99.90;;;;;;5055136;28;20489;-63
2022/06/13 00:26:22;;;;;;;25.42;7.80;;;15.80;99.90;;;;;;5053621;28;20124;-64
2022/06/13 00:28:49;;;;;;;28.00;6.65;;;15.90;99.90;;;;;;5054701;28;20025;-63
2022/06/13 00:31:15;;;;;;;24.98;7.25;;;15.80;99.90;;;;;;5054583;28;20045;-63
2022/06/13 00:33:44;;;;;;;19.27;5.80;;;15.90;99.90;;;;;;5054515;28;20013;-63
2022/06/13 00:36:10;;;;;;;28.13;8.77;;;15.80;99.90;;;;;;5054671;28;20021;-66
2022/06/13 00:38:37;;;;;;;24.92;8.52;;;15.90;99.90;;;;;;5054381;28;20049;-66
2022/06/13 00:41:11;;;;;;;20.27;5.97;;;15.90;99.90;;;;;;5054373;28;20049;-66
2022/06/13 00:43:38;;;;;;;21.13;6.75;;;15.90;99.90;;;;;;5052300;28;20013;-63
2022/06/13 00:46:25;;;;;;;20.73;6.72;;;15.90;99.90;;;;;;5054156;28;20139;-64
2022/06/13 00:49:05;;;;;;;26.25;8.07;;;16.00;99.90;;;;;;5051337;28;20099;-64
2022/06/13 00:51:34;;;;;;;21.75;6.18;;;16.00;99.90;;;;;;5051041;28;20049;-65
2022/06/13 00:54:00;;;;;;;25.02;6.03;;;16.00;99.90;;;;;;5052814;28;20021;-65
2022/06/13 00:56:29;;;;;;;29.60;7.28;;;16.00;99.90;;;;;;5053933;28;20096;-65
2022/06/13 00:59:00;;;;;;;24.55;8.07;;;16.10;99.90;;;;;;5054311;28;20025;-65
2022/06/13 01:01:29;;;;;;;25.13;6.15;;;16.00;99.90;;;;;;5054714;28;20070;-64
2022/06/13 01:03:57;;;;;;;21.50;7.40;;;16.00;99.90;;;;;;5053662;28;20446;-67
2022/06/13 01:06:26;;;;;;;24.92;8.00;;;16.00;99.90;;;;;;5052747;28;20024;-65
2022/06/13 01:08:52;;;;;;;30.10;8.15;;;16.00;99.90;;;;;;5054101;28;20033;-64
2022/06/13 01:11:22;;;;;;;24.85;6.53;;;16.00;99.90;;;;;;5051786;28;20021;-63
2022/06/13 01:14:22;;;;;;;26.58;7.63;;;16.00;99.90;;;;;;5053116;28;20025;-63
2022/06/13 01:16:56;;;;;;;28.15;7.75;;;15.90;99.90;;;;;;5050957;28;20029;-62
2022/06/13 01:19:47;;;;;;;24.75;7.25;;;15.90;99.90;;;;;;5051913;28;20119;-65
2022/06/13 01:22:43;;;;;;;24.23;7.00;;;15.90;99.90;;;;;;5053732;28;20021;-65
2022/06/13 01:25:36;;;;;;;24.60;6.35;;;15.80;99.90;;;;;;5053403;28;20113;-64
2022/06/13 01:28:18;;;;;;;29.45;7.43;;;15.80;99.90;;;;;;5053391;28;20017;-66
2022/06/13 01:31:02;;;;;;;22.38;7.60;;;15.80;99.90;;;;;;5032775;28;20063;-63
2022/06/13 01:33:39;;;;;;;27.73;8.10;;;15.80;99.90;;;;;;5033537;28;20414;-66
2022/06/13 01:36:29;;;;;;;26.55;7.25;;;15.80;99.90;;;;;;5033652;28;20021;-64
2022/06/13 01:39:22;;;;;;;24.52;7.82;;;15.80;99.90;;;;;;5033243;28;20029;-64
2022/06/13 01:42:04;;;;;;;18.67;5.82;;;15.90;99.90;;;;;;5033284;28;20024;-64
2022/06/13 01:44:49;;;;;;;19.53;6.23;;;15.80;99.90;;;;;;5033358;28;20038;-63
2022/06/13 01:47:34;;;;;;;19.10;5.30;;;15.80;99.90;;;;;;5033414;28;20026;-65
2022/06/13 01:50:05;;;;;;;21.73;6.15;;;15.80;99.90;;;;;;5033479;28;20026;-63
2022/06/13 01:52:33;;;;;;;22.70;7.03;;;15.80;99.90;;;;;;5033413;28;20025;-67
2022/06/13 01:55:22;;;;;;;17.02;5.07;;;15.80;99.90;;;;;;5033580;28;20063;-63
2022/06/13 01:58:12;;;;;;;17.65;4.57;;;15.80;99.90;;;;;;5033084;28;20028;-64
2022/06/13 02:00:40;;;;;;;18.92;5.05;;;15.80;99.90;;;;;;5031654;28;20033;-63
2022/06/13 02:03:13;;;;;;;23.35;5.88;;;15.80;99.90;;;;;;5033179;28;20025;-65
2022/06/13 02:05:44;;;;;;;18.90;5.53;;;15.80;99.90;;;;;;5031560;28;20418;-63
2022/06/13 02:08:23;;;;;;;19.65;5.63;;;15.80;99.90;;;;;;5033176;28;20032;-63
2022/06/13 02:11:18;;;;;;;16.05;4.10;;;15.70;99.90;;;;;;5033338;28;20029;-63
2022/06/13 02:13:51;;;;;;;17.23;4.47;;;15.70;99.90;;;;;;5030370;28;20099;-65
2022/06/13 02:16:24;;;;;;;19.27;4.28;;;15.70;99.90;;;;;;5033022;28;20072;-63
2022/06/13 02:19:17;;;;;;;13.05;3.97;;;15.70;99.90;;;;;;5033003;28;20049;-66
2022/06/13 02:21:58;;;;;;;19.85;4.13;;;15.70;99.90;;;;;;5032349;28;20421;-66
2022/06/13 02:24:30;;;;;;;12.52;4.05;;;15.70;99.90;;;;;;5032681;28;20068;-66
2022/06/13 02:26:59;;;;;;;13.02;4.47;;;15.70;99.90;;;;;;5032925;28;20065;-63
2022/06/13 02:29:33;;;;;;;11.98;3.70;;;15.70;99.90;;;;;;5032614;28;20083;-64
2022/06/13 02:32:06;;;;;;;10.60;2.90;;;15.80;99.90;;;;;;5032898;28;20078;-66
2022/06/13 02:34:34;;;;;;;;;;;15.80;99.90;;;;;;5033275;28;20045;-64
2022/06/13 02:37:09;;;;;;;17.65;3.22;;;15.80;99.90;;;;;;5032574;28;19905;-64
2022/06/13 02:40:03;;;;;;;10.18;3.00;;;15.80;99.90;;;;;;5032548;28;20032;-64
2022/06/13 02:42:50;;;;;;;13.98;3.22;;;15.80;99.90;;;;;;5031118;28;20021;-64
2022/06/13 02:45:18;;;;;;;18.38;3.83;;;15.90;99.90;;;;;;5032246;28;20029;-66
2022/06/13 02:48:11;;;;;;;11.00;2.97;;;15.90;99.90;;;;;;5032333;28;20025;-63
2022/06/13 02:51:00;;;;;;;10.15;3.13;;;15.80;99.90;;;;;;5032688;28;20022;-64
2022/06/13 02:53:38;;;;;;;16.48;3.90;;;15.80;99.90;;;;;;5032707;28;20136;-64
2022/06/13 02:56:18;;;;;;;12.73;2.88;;;15.80;99.90;;;;;;5032450;28;20029;-63
2022/06/13 02:59:07;;;;;;;14.38;3.30;;;15.80;99.90;;;;;;5031817;28;20017;-64
2022/06/13 03:01:45;;;;;;;19.42;5.30;;;15.80;99.90;;;;;;5032225;28;20022;-63
2022/06/13 03:04:31;;;;;;;11.15;3.20;;;15.80;99.90;;;;;;5032198;28;20096;-62
2022/06/13 03:07:19;;;;;;;9.23;2.72;;;15.80;99.90;;;;;;5032031;28;20029;-63
2022/06/13 03:09:50;;;;;;;16.10;3.60;;;15.80;99.90;;;;;;5032320;28;20029;-67
2022/06/13 03:12:53;;;;;;;10.27;2.83;;;15.80;99.90;;;;;;5032593;28;20022;-65
2022/06/13 03:15:33;;;;;;;11.95;3.97;;;15.80;99.90;;;;;;5032053;28;20064;-64
2022/06/13 03:18:23;;;;;;;13.52;3.95;;;15.80;99.90;;;;;;5032310;28;20026;-66
2022/06/13 03:20:49;;;;;;;8.30;2.45;;;15.80;99.90;;;;;;5032231;28;20033;-63
2022/06/13 03:23:23;;;;;;;12.30;3.75;;;15.80;99.90;;;;;;5031962;28;20075;-64
2022/06/13 03:26:05;;;;;;;16.77;4.32;;;15.80;99.90;;;;;;5031561;28;20029;-66
2022/06/13 03:28:42;;;;;;;11.40;3.50;;;15.80;99.90;;;;;;5032014;28;20524;-65
2022/06/13 03:31:14;;;;;;;10.02;2.90;;;15.70;99.90;;;;;;5032170;28;20037;-63
2022/06/13 03:33:41;;;;;;;;;;;15.70;99.90;;;;;;5032874;28;20139;-64
2022/06/13 03:36:07;;;;;;;12.50;3.05;;;15.70;99.90;;;;;;5031633;28;19901;-63
2022/06/13 03:38:39;;;;;;;11.50;2.85;;;15.60;99.90;;;;;;5031569;28;20036;-63
2022/06/13 03:41:06;;;;;;;11.18;2.67;;;15.60;99.90;;;;;;5033588;28;20108;-64
2022/06/13 03:43:52;;;;;;;8.93;2.40;;;15.60;99.90;;;;;;5035724;28;20029;-64
2022/06/13 03:46:28;;;;;;;9.88;2.78;;;15.60;99.90;;;;;;5035727;28;20134;-64
2022/06/13 03:49:05;;;;;;;9.55;2.28;;;15.60;99.90;;;;;;5035163;28;20966;-64
2022/06/13 03:51:40;;;;;;;9.23;2.30;;;15.60;99.90;;;;;;5035862;28;20029;-64
2022/06/13 03:54:23;;;;;;;9.07;2.72;;;15.60;99.90;;;;;;5036131;28;20084;-65
2022/06/13 03:56:59;;;;;;;6.05;1.95;;;15.70;99.90;;;;;;5035040;28;20466;-65
2022/06/13 03:59:35;;;;;;;10.73;2.90;;;15.70;99.90;;;;;;5035440;28;20475;-65
2022/06/13 04:02:11;;;;;;;8.10;2.22;;;15.70;99.90;;;;;;5035362;28;20029;-62
2022/06/13 04:04:49;;;;;;;9.70;1.73;;;15.80;99.90;;;;;;5035270;28;20055;-64
2022/06/13 04:07:17;;;;;;;6.95;2.00;;;15.80;99.90;;;;;;5035038;28;20030;-64
2022/06/13 04:09:57;;;;;;;8.60;1.77;;;15.80;99.90;;;;;;5035254;28;20013;-63
2022/06/13 04:12:50;;;;;;;7.45;1.90;;;15.90;99.90;;;;;;5035757;28;20029;-63
2022/06/13 04:15:20;;;;;;;8.00;2.20;;;15.90;99.90;;;;;;5035465;28;20514;-63
2022/06/13 04:18:12;;;;;;;7.93;3.38;;;15.90;99.90;;;;;;5033903;28;20210;-63
2022/06/13 04:21:01;;;;;;;7.32;2.10;;;16.00;99.90;;;;;;5035976;28;20073;-66
2022/06/13 04:24:01;;;;;;;9.48;2.33;;;16.00;99.90;;;;;;5005236;28;20473;-66
2022/06/13 04:26:44;;;;;;;14.80;3.47;;;16.10;99.90;;;;;;5034383;28;20034;-63
2022/06/13 04:29:32;;;;;;;8.48;2.20;;;16.10;99.90;;;;;;5035164;28;20051;-66
2022/06/13 04:32:04;;;;;;;10.77;2.42;;;16.10;99.90;;;;;;5034886;28;20376;-67
2022/06/13 04:34:35;;;;;;;10.07;2.72;;;16.20;99.90;;;;;;5034743;28;20512;-66
2022/06/13 04:37:03;;;;;;;7.70;1.80;;;16.20;99.90;;;;;;5034301;28;20079;-65
2022/06/13 04:39:33;;;;;;;7.60;1.90;;;16.20;99.90;;;;;;5034565;28;20065;-63
2022/06/13 04:42:01;;;;;;;7.60;1.58;;;16.30;99.90;;;;;;5034597;28;20018;-64
2022/06/13 04:44:29;;;;;;;11.35;2.33;;;16.30;99.90;;;;;;5034493;28;20462;-66
2022/06/13 04:46:56;;;;;;;9.45;1.70;;;16.40;99.90;;;;;;5034350;28;20025;-63
2022/06/13 04:49:41;;;;;;;7.70;1.80;;;16.40;99.90;;;;;;5034319;28;20034;-64
2022/06/13 04:52:15;;;;;;;10.55;2.47;;;16.60;99.90;;;;;;5034218;28;20033;-63
2022/06/13 04:54:52;;;;;;;11.52;2.95;;;16.60;99.90;;;;;;5034727;28;20030;-63
2022/06/13 04:57:18;;;;;;;14.63;3.38;;;16.60;99.90;;;;;;5033744;28;20022;-63
2022/06/13 04:59:45;;;;;;;12.23;2.28;;;16.60;99.90;;;;;;5034008;28;20037;-63
2022/06/13 05:02:15;;;;;;;14.07;2.63;;;16.70;99.90;;;;;;5034395;28;20022;-63
2022/06/13 05:04:41;;;;;;;9.48;2.15;;;16.70;99.90;;;;;;5034440;28;20033;-65
2022/06/13 05:07:14;;;;;;;9.77;2.58;;;16.70;99.90;;;;;;5034370;28;20124;-65
2022/06/13 05:09:56;;;;;;;12.80;3.20;;;16.70;99.90;;;;;;5034864;28;20141;-68
2022/06/13 05:12:40;;;;;;;6.68;2.75;;;16.80;99.90;;;;;;5034753;28;20025;-63
2022/06/13 05:15:24;;;;;;;9.77;2.50;;;16.80;99.90;;;;;;5033066;28;20033;-63
2022/06/13 05:18:33;;;;;;;11.80;3.28;;;16.90;99.90;;;;;;5034376;28;20083;-63
2022/06/13 05:21:33;;;;;;;8.90;2.50;;;16.90;99.90;;;;;;5032597;28;20350;-63
2022/06/13 05:24:34;;;;;;;14.75;4.97;;;17.00;99.90;;;;;;5033960;28;20049;-63
2022/06/13 05:27:02;;;;;;;11.07;2.97;;;17.10;99.90;;;;;;5001835;28;20374;-63
2022/06/13 05:29:28;;;;;;;11.52;3.28;;;17.20;99.90;;;;;;5033847;28;20208;-63
2022/06/13 05:31:54;;;;;;;11.63;2.58;;;17.20;99.90;;;;;;5034048;28;20041;-63
2022/06/13 05:34:33;;;;;;;13.85;3.15;;;17.30;99.90;;;;;;5033661;28;20087;-63
2022/06/13 05:36:59;;;;;;;12.50;2.88;;;17.30;99.90;;;;;;5033250;28;20052;-63
2022/06/13 05:39:25;;;;;;;10.75;3.05;;;17.30;99.90;;;;;;5033722;28;20048;-63
2022/06/13 05:41:51;;;;;;;10.15;2.03;;;17.30;99.90;;;;;;5033345;28;20339;-67
2022/06/13 05:44:19;;;;;;;9.88;2.03;;;17.30;99.90;;;;;;5031722;28;20053;-66
2022/06/13 05:46:45;;;;;;;11.43;2.28;;;17.30;99.90;;;;;;5033428;28;20033;-65
2022/06/13 05:49:12;;;;;;;15.80;5.72;;;17.30;99.90;;;;;;5033535;28;20022;-69
2022/06/13 05:51:38;;;;;;;12.43;2.50;;;17.40;99.90;;;;;;5032012;28;20025;-68
2022/06/13 05:54:04;;;;;;;8.77;2.05;;;17.40;99.90;;;;;;5033617;28;20028;-64
2022/06/13 05:56:30;;;;;;;15.38;2.65;;;17.50;99.90;;;;;;5033530;28;20340;-67
2022/06/13 05:58:56;;;;;;;12.98;3.45;;;17.60;99.90;;;;;;5032953;28;20021;-64
2022/06/13 06:01:21;;;;;;;10.95;3.05;;;17.60;99.90;;;;;;5033594;28;20040;-64
2022/06/13 06:03:47;;;;;;;12.20;2.45;;;17.70;99.90;;;;;;5032660;28;20058;-62
2022/06/13 06:06:21;;;;;;;9.52;2.10;;;18.00;99.90;;;;;;5031958;28;20428;-64
2022/06/13 06:08:47;;;;;;;8.57;1.85;;;18.80;99.90;;;;;;5052358;28;20032;-65
2022/06/13 06:11:13;;;;;;;8.50;2.33;;;19.80;99.90;;;;;;5052471;28;20025;-67
2022/06/13 06:13:38;;;;;;;10.15;2.10;;;21.20;98.60;;;;;;5051745;28;20028;-66
2022/06/13 06:16:04;;;;;;;4.72;1.60;;;22.30;96.70;;;;;;5053171;28;20025;-63
2022/06/13 06:18:30;;;;;;;11.02;2.70;;;23.00;94.80;;;;;;5052612;28;20104;-63
2022/06/13 06:20:56;;;;;;;8.38;2.03;;;22.80;94.50;;;;;;5050540;28;20017;-66
2022/06/13 06:23:22;;;;;;;9.55;2.53;;;22.60;94.50;;;;;;5051293;28;20025;-66
2022/06/13 06:25:48;;;;;;;5.97;2.35;;;22.60;94.80;;;;;;5052955;28;20037;-62
2022/06/13 06:28:16;;;;;;;12.30;2.80;;;22.80;94.70;;;;;;5053197;28;20025;-63
2022/06/13 06:30:43;;;;;;;7.95;2.33;;;23.60;93.80;;;;;;5052632;28;20041;-63
2022/06/13 06:33:09;;;;;;;7.10;2.13;;;24.10;92.80;;;;;;5052638;28;20474;-65
2022/06/13 06:35:34;;;;;;;10.05;3.13;;;24.40;92.60;;;;;;5052616;28;20033;-63
2022/06/13 06:38:01;;;;;;;7.53;2.10;;;25.00;91.50;;;;;;5051658;28;20021;-65
2022/06/13 06:40:27;;;;;;;6.20;1.73;;;25.60;90.30;;;;;;5052422;28;20028;-63
2022/06/13 06:42:54;;;;;;;8.70;2.10;;;26.00;88.70;;;;;;5052719;28;20061;-63
2022/06/13 06:45:20;;;;;;;5.88;1.85;;;26.00;87.90;;;;;;5050784;28;20115;-64
2022/06/13 06:47:46;;;;;;;4.65;1.65;;;26.00;87.40;;;;;;5052071;28;20040;-64
2022/06/13 06:50:15;;;;;;;6.88;1.80;;;26.30;85.70;;;;;;5051960;28;20044;-62
2022/06/13 06:52:42;;;;;;;6.65;1.92;;;26.50;84.70;;;;;;5053102;28;20048;-62
2022/06/13 07:00:42;;;;;;;4.68;1.27;;;26.80;79.90;;;;;;5052694;28;20094;-63
2022/06/13 07:03:08;;;;;;;5.43;1.60;;;26.80;78.80;;;;;;5052535;28;20052;-66
2022/06/13 07:05:33;;;;;;;8.77;2.28;;;27.10;78.60;;;;;;5052435;28;20069;-63
2022/06/13 07:07:59;;;;;;;7.55;1.70;;;27.60;77.30;;;;;;5052854;28;20104;-68
2022/06/13 07:10:24;;;;;;;8.38;1.80;;;27.80;77.30;;;;;;5052321;28;20121;-65
2022/06/13 07:12:50;;;;;;;8.88;2.10;;;28.20;77.30;;;;;;5050107;28;20017;-64
2022/06/13 07:15:16;;;;;;;7.47;1.33;;;28.40;76.70;;;;;;5052719;28;20021;-64
2022/06/13 07:17:42;;;;;;;8.75;1.50;;;28.40;76.10;;;;;;5056974;28;20024;-63
2022/06/13 07:20:10;;;;;;;5.20;1.70;;;28.40;76.70;;;;;;5056776;28;20025;-63
2022/06/13 07:22:35;;;;;;;9.90;1.85;;;28.30;76.30;;;;;;5056079;28;20025;-64
2022/06/13 07:25:01;;;;;;;7.07;1.70;;;28.30;76.30;;;;;;5051246;28;20124;-64
2022/06/13 07:27:26;;;;;;;9.40;1.90;;;28.00;76.90;;;;;;5054593;28;20027;-63
2022/06/13 07:29:52;;;;;;;5.60;1.52;;;27.30;77.20;;;;;;5055953;28;20028;-64
2022/06/13 07:32:21;;;;;;;8.68;1.63;;;26.80;78.50;;;;;;5056273;28;20068;-64
2022/06/13 07:34:49;;;;;;;9.90;1.70;;;26.60;79.00;;;;;;5056232;28;20028;-65
2022/06/13 07:38:16;;;;;;;9.43;2.05;;;26.50;78.20;;;;;;5056266;28;20024;-63
2022/06/13 07:40:06;;;;;;;3.13;1.10;;;26.00;79.20;;;;;;5056007;28;20432;-63
2022/06/13 07:42:56;;;;;;;3.00;1.20;;;25.50;79.70;;;;;;5057271;28;20021;-64
2022/06/13 07:45:25;;;;;;;6.43;1.25;;;25.30;79.90;;;;;;5054922;28;20033;-64
2022/06/13 07:47:52;;;;;;;6.50;1.85;;;25.40;80.10;;;;;;5049841;28;20021;-64
2022/06/13 07:50:21;;;;;;;5.68;1.15;;;25.60;80.30;;;;;;5055233;28;20099;-66
2022/06/13 07:52:48;;;;;;;7.82;1.80;;;26.10;80.00;;;;;;5055813;28;20021;-63
2022/06/13 07:55:14;;;;;;;5.38;1.55;;;26.00;78.50;;;;;;5056046;28;20028;-63
2022/06/13 07:57:40;;;;;;;3.70;1.27;;;25.50;79.40;;;;;;5055668;28;20021;-63
2022/06/13 08:00:09;;;;;;;7.20;1.80;;;25.00;80.30;;;;;;5055882;28;20029;-67
2022/06/13 08:02:36;;;;;;;10.00;1.90;;;24.50;81.30;;;;;;5056043;28;20048;-66
2022/06/13 08:05:02;;;;;;;9.00;2.05;;;24.20;82.60;;;;;;5054836;28;20052;-64
2022/06/13 08:07:27;;;;;;;7.07;2.10;;;24.00;83.30;;;;;;5053984;28;20365;-64
2022/06/13 08:09:53;;;;;;;7.63;1.45;;;24.00;83.00;;;;;;5055158;28;20092;-64
2022/06/13 08:12:20;;;;;;;7.15;1.80;;;24.00;82.00;;;;;;5055059;28;20715;-68
2022/06/13 08:14:47;;;;;;;4.05;1.30;;;24.20;80.40;;;;;;5052519;28;20108;-64
2022/06/13 08:17:18;;;;;;;8.40;1.40;;;24.50;80.30;;;;;;5054103;28;20071;-64
2022/06/13 08:19:44;;;;;;;9.10;1.52;;;25.10;79.70;;;;;;5054694;28;20027;-65
2022/06/13 08:22:10;;;;;;;7.18;1.83;;;25.50;78.30;;;;;;5054345;28;20021;-64
2022/06/13 08:24:36;;;;;;;7.20;1.40;;;25.60;78.40;;;;;;5054680;28;20451;-64
2022/06/13 08:27:01;;;;;;;9.18;1.80;;;25.50;78.10;;;;;;5047823;28;20025;-65
2022/06/13 08:29:27;;;;;;;5.65;1.20;;;25.10;78.60;;;;;;5047578;28;20021;-64
2022/06/13 08:31:52;;;;;;;6.43;1.08;;;24.70;79.30;;;;;;5055664;28;20493;-65
2022/06/13 08:34:19;;;;;;;5.25;1.30;;;24.40;80.60;;;;;;5054291;28;20374;-63
2022/06/13 08:36:46;;;;;;;7.40;1.20;;;24.80;80.10;;;;;;5056492;28;20040;-65
2022/06/13 08:39:12;;;;;;;6.10;1.23;;;25.20;78.50;;;;;;5051942;28;20079;-67
2022/06/13 08:41:45;;;;;;;4.68;1.10;;;25.40;79.00;;;;;;5054467;28;20021;-64
2022/06/13 08:44:32;;;;;;;5.82;1.50;;;25.90;77.60;;;;;;5053274;28;20036;-67
2022/06/13 08:47:32;;;;;;;5.93;1.10;;;26.80;77.00;;;;;;5051782;28;20653;-63
2022/06/13 08:50:21;;;;;;;9.48;1.77;;;27.70;76.40;;;;;;5052192;28;20033;-65
2022/06/13 08:52:50;;;;;;;4.90;1.33;;;27.90;74.70;;;;;;5053541;28;20033;-66
2022/06/13 08:55:23;;;;;;;5.35;1.23;;;27.40;74.30;;;;;;5053965;28;20017;-66
2022/06/13 08:58:11;;;;;;;9.27;2.45;;;27.60;74.60;;;;;;5054302;28;20017;-66
2022/06/13 09:00:40;;;;;;;3.03;1.05;;;28.20;73.50;;;;;;5051804;28;20475;-64
2022/06/13 09:03:14;;;;;;;6.22;1.23;;;28.80;71.80;;;;;;5054948;28;20028;-65
2022/06/13 09:05:56;;;;;;;13.05;1.67;;;29.10;71.20;;;;;;5052027;28;20033;-66
2022/06/13 09:08:41;;;;;;;7.32;1.23;;;29.40;70.60;;;;;;5053046;28;20020;-69
2022/06/13 09:11:20;;;;;;;7.50;1.15;;;29.00;71.40;;;;;;5052913;28;20048;-66
2022/06/13 09:13:57;;;;;;;5.57;0.95;;;28.70;71.70;;;;;;5053022;28;20033;-64
2022/06/13 09:16:32;;;;;;;5.78;1.10;;;29.10;69.80;;;;;;5053902;28;20089;-67
2022/06/13 09:19:13;;;;;;;4.10;1.17;;;29.80;69.30;;;;;;5054053;28;20061;-66
2022/06/13 09:22:03;;;;;;;7.68;1.20;;;30.00;69.10;;;;;;5053916;28;20111;-66
2022/06/13 09:24:41;;;;;;;7.43;1.48;;;30.40;68.90;;;;;;5053838;28;20361;-65
2022/06/13 09:27:23;;;;;;;6.20;1.70;;;30.80;67.30;;;;;;5052788;28;20455;-65
2022/06/13 09:29:58;;;;;;;4.30;0.98;;;30.90;66.40;;;;;;5053563;28;20064;-64
2022/06/13 09:32:53;;;;;;;6.20;1.20;;;31.30;66.00;;;;;;5053299;28;20032;-65
2022/06/13 09:35:25;;;;;;;8.05;1.42;;;31.40;65.40;;;;;;5053167;28;20033;-64
2022/06/13 09:38:18;;;;;;;3.65;1.02;;;31.10;65.20;;;;;;5051110;28;20082;-65
2022/06/13 09:41:08;;;;;;;5.10;1.30;;;30.40;65.60;;;;;;5053599;28;20075;-69
2022/06/13 09:43:36;;;;;;;6.68;1.30;;;30.50;65.70;;;;;;5052964;28;20082;-64
2022/06/13 09:46:14;;;;;;;6.75;2.58;;;31.00;64.20;;;;;;5051939;28;20311;-66
2022/06/13 09:49:00;;;;;;;6.25;1.23;;;30.90;65.00;;;;;;5052780;28;20021;-68
2022/06/13 09:51:31;;;;;;;7.32;1.40;;;31.50;64.70;;;;;;5052862;28;20036;-65
2022/06/13 09:54:17;;;;;;;;;;;31.80;64.10;;;;;;5053813;28;20022;-63
2022/06/13 09:56:57;;;;;;;7.68;1.42;;;31.70;63.50;;;;;;5021544;28;19983;-64
2022/06/13 09:59:36;;;;;;;4.45;1.17;;;32.00;62.30;;;;;;5052734;28;20112;-66
2022/06/13 10:02:25;;;;;;;8.52;1.23;;;32.60;61.10;;;;;;5052688;28;20094;-64
2022/06/13 10:05:18;;;;;;;4.88;1.20;;;33.00;60.40;;;;;;5052986;28;20025;-64
2022/06/13 10:08:14;;;;;;;4.97;1.13;;;33.30;59.20;;;;;;5052906;28;20064;-65
2022/06/13 10:11:08;;;;;;;5.95;1.67;;;32.90;59.80;;;;;;5053466;28;20017;-64
2022/06/13 10:14:06;;;;;;;9.95;1.90;;;32.20;59.80;;;;;;5052190;28;20679;-63
2022/06/13 10:16:40;;;;;;;6.15;1.33;;;31.30;61.00;;;;;;5051105;28;20059;-62
2022/06/13 10:19:12;;;;;;;6.20;1.30;;;31.60;61.40;;;;;;5051441;28;20082;-67
2022/06/13 10:21:46;;;;;;;7.20;1.85;;;32.00;60.10;;;;;;5052173;28;20028;-66
2022/06/13 10:24:20;;;;;;;9.93;1.92;;;32.20;60.40;;;;;;5051192;28;20547;-65
2022/06/13 10:26:57;;;;;;;10.70;2.05;;;32.40;60.40;;;;;;5052805;28;20025;-63
2022/06/13 10:29:37;;;;;;;9.32;1.88;;;32.70;60.80;;;;;;5052659;28;20025;-64
2022/06/13 10:32:40;;;;;;;9.10;1.60;;;32.90;59.80;;;;;;5052414;28;20060;-64
2022/06/13 10:35:18;;;;;;;5.90;1.25;;;32.80;59.00;;;;;;5050470;28;20037;-67
2022/06/13 10:37:47;;;;;;;8.35;1.83;;;32.50;59.30;;;;;;5047307;28;20021;-64
2022/06/13 10:40:15;;;;;;;5.53;1.38;;;32.40;59.50;;;;;;5052373;28;20505;-65
2022/06/13 10:42:41;;;;;;;10.70;1.92;;;32.20;59.70;;;;;;5053097;28;20033;-64
2022/06/13 10:45:10;;;;;;;6.35;2.00;;;32.10;59.80;;;;;;5052615;28;20040;-64
2022/06/13 10:47:58;;;;;;;6.40;1.58;;;32.20;59.10;;;;;;5052519;28;20404;-64
2022/06/13 10:50:40;;;;;;;7.78;1.58;;;32.00;58.80;;;;;;5052060;28;20114;-67
2022/06/13 10:53:11;;;;;;;5.43;1.52;;;31.30;59.20;;;;;;5052514;28;20454;-67
2022/06/13 10:55:41;;;;;;;10.70;1.30;;;31.50;58.90;;;;;;5052454;28;20051;-64
2022/06/13 10:58:23;;;;;;;8.23;1.25;;;32.10;59.00;;;;;;5052689;28;20063;-63
2022/06/13 11:01:08;;;;;;;5.65;1.80;;;32.00;58.80;;;;;;5050409;28;20017;-65
2022/06/13 11:03:34;;;;;;;8.48;2.03;;;31.20;59.70;;;;;;5051565;28;20465;-64
2022/06/13 11:06:06;;;;;;;13.38;1.60;;;30.60;60.00;;;;;;5052486;28;20037;-64
2022/06/13 11:08:34;;;;;;;9.98;1.85;;;30.30;61.00;;;;;;5052082;28;20056;-66
2022/06/13 11:11:03;;;;;;;4.43;1.48;;;30.60;61.50;;;;;;5053121;28;20040;-64
2022/06/13 11:13:36;;;;;;;8.68;1.83;;;30.60;61.10;;;;;;5050925;28;20021;-66
2022/06/13 11:22:45;;;;;;;4.97;1.27;;;30.80;59.50;;;;;;5050630;28;20028;-63
2022/06/13 11:25:24;;;;;;;13.32;1.80;;;31.20;59.50;;;;;;5050339;28;20029;-64
2022/06/13 11:28:06;;;;;;;6.75;1.48;;;31.50;59.70;;;;;;5051543;28;20506;-64
2022/06/13 11:33:55;;;;;;;10.57;1.58;;;30.80;59.10;;;;;;5051269;28;19982;-67
2022/06/13 11:36:30;;;;;;;10.32;1.60;;;30.40;59.50;;;;;;5049262;28;20025;-64
2022/06/13 11:39:02;;;;;;;5.90;1.58;;;30.20;59.50;;;;;;5050484;28;20037;-65
2022/06/13 11:41:45;;;;;;;6.55;1.50;;;30.10;59.80;;;;;;5050612;28;20029;-64
2022/06/13 11:44:17;;;;;;;9.68;1.65;;;30.40;60.20;;;;;;5050538;28;20028;-67
2022/06/13 11:47:03;;;;;;;7.72;1.92;;;30.60;60.40;;;;;;5050713;28;20112;-65
2022/06/13 11:49:39;;;;;;;8.93;1.35;;;30.40;60.20;;;;;;5051567;28;20112;-66
2022/06/13 11:52:10;;;;;;;10.07;1.67;;;30.00;60.90;;;;;;5050802;28;20104;-64
2022/06/13 11:54:40;;;;;;;;;;;30.00;60.20;;;;;;5051248;28;20443;-63
2022/06/13 11:57:17;;;;;;;7.80;1.42;;;30.20;59.90;;;;;;5052000;28;19908;-64
2022/06/13 11:59:53;;;;;;;6.72;1.33;;;30.70;59.60;;;;;;5052191;28;20029;-64
2022/06/13 12:02:26;;;;;;;9.77;2.00;;;31.00;58.30;;;;;;5054021;28;20035;-67
2022/06/13 12:04:55;;;;;;;6.57;1.55;;;31.20;59.40;;;;;;5055227;28;20033;-64
2022/06/13 12:07:27;;;;;;;7.82;1.60;;;31.10;58.70;;;;;;5052605;28;20020;-65
2022/06/13 12:09:56;;;;;;;7.53;1.58;;;30.50;59.10;;;;;;5055478;28;20017;-64
2022/06/13 12:12:21;;;;;;;6.95;1.85;;;30.10;59.10;;;;;;5055437;28;20436;-64
2022/06/13 12:14:47;;;;;;;11.13;1.90;;;30.10;59.10;;;;;;5051393;28;20028;-64
2022/06/13 12:17:29;;;;;;;6.45;1.50;;;29.90;59.30;;;;;;5055036;28;20021;-69
2022/06/13 12:20:07;;;;;;;9.25;1.75;;;29.60;60.00;;;;;;5055476;28;20017;-66
2022/06/13 12:22:40;;;;;;;9.02;1.60;;;29.10;61.10;;;;;;5053464;28;20036;-65
2022/06/13 12:25:17;;;;;;;10.45;1.75;;;28.30;61.90;;;;;;5053425;28;20123;-64
2022/06/13 12:28:16;;;;;;;6.45;1.38;;;28.00;62.60;;;;;;5055070;28;20017;-65
2022/06/13 12:30:56;;;;;;;12.05;1.65;;;28.20;61.40;;;;;;5051625;28;20044;-65
2022/06/13 12:33:46;;;;;;;13.05;1.88;;;28.50;61.80;;;;;;5054935;28;20031;-64
2022/06/13 12:36:29;;;;;;;9.35;1.73;;;28.60;61.60;;;;;;5055172;28;20358;-63
2022/06/13 12:39:30;;;;;;;7.70;1.48;;;28.50;61.10;;;;;;5054103;28;20028;-65
2022/06/13 12:42:08;;;;;;;9.05;1.65;;;27.90;62.50;;;;;;5054474;28;20513;-67
2022/06/13 12:45:04;;;;;;;8.52;1.80;;;27.20;63.30;;;;;;5054775;28;20461;-64
2022/06/13 12:47:39;;;;;;;7.38;1.88;;;26.80;63.60;;;;;;5053118;28;20021;-68
2022/06/13 12:50:24;;;;;;;6.57;1.63;;;26.60;64.60;;;;;;5054839;28;20021;-67
2022/06/13 12:53:20;;;;;;;12.93;2.10;;;26.40;64.80;;;;;;5054859;28;20146;-65
2022/06/13 12:56:02;;;;;;;11.40;1.98;;;26.20;65.90;;;;;;5054762;28;20029;-65
2022/06/13 12:58:28;;;;;;;;;;;26.40;65.90;;;;;;5054784;28;20025;-65
2022/06/13 13:01:02;;;;;;;9.57;2.22;;;26.60;64.00;;;;;;5054598;28;20350;-64
2022/06/13 13:03:57;;;;;;;9.98;1.38;;;26.60;64.80;;;;;;5054632;28;20032;-63
2022/06/13 13:06:44;;;;;;;5.63;1.63;;;26.30;64.90;;;;;;5054440;28;20039;-64
2022/06/13 13:09:21;;;;;;;12.73;1.90;;;25.90;65.80;;;;;;5054022;28;20028;-66
2022/06/13 13:11:50;;;;;;;8.77;2.15;;;25.60;67.20;;;;;;5054217;28;20087;-64
2022/06/13 13:14:39;;;;;;;9.18;1.63;;;25.20;67.40;;;;;;5053104;28;20103;-63
2022/06/13 13:17:32;;;;;;;10.00;2.20;;;24.90;67.00;;;;;;5054248;28;20044;-64
2022/06/13 13:20:13;;;;;;;11.32;2.88;;;24.70;67.90;;;;;;5022778;28;20418;-64
2022/06/13 13:23:22;;;;;;;14.98;4.60;;;24.40;68.00;;;;;;5053597;28;20021;-64
2022/06/13 13:25:50;;;;;;;9.13;2.20;;;24.30;69.00;;;;;;5052641;28;20060;-64
2022/06/13 13:28:32;;;;;;;9.05;1.90;;;24.30;69.60;;;;;;5052675;28;20370;-65
2022/06/13 13:31:22;;;;;;;10.60;2.75;;;24.30;69.40;;;;;;5053833;28;20045;-63
2022/06/13 13:34:03;;;;;;;10.60;2.63;;;24.30;69.80;;;;;;5054097;28;20104;-64
2022/06/13 13:36:35;;;;;;;7.73;2.23;;;24.30;70.60;;;;;;5053023;28;20558;-65
2022/06/13 13:39:09;;;;;;;8.25;2.03;;;24.30;70.10;;;;;;5053712;28;20024;-66
2022/06/13 13:41:44;;;;;;;7.63;2.05;;;24.30;69.80;;;;;;5051506;28;20029;-66